createdAt,value
2019-05-28T00:00:22.097Z,17.40
2019-05-28T00:01:21.087Z,17.60
2019-05-28T00:02:21.115Z,16.60
2019-05-28T00:03:21.077Z,18.10
2019-05-28T00:04:21.057Z,16.70
2019-05-28T00:05:21.042Z,17.30
2019-05-28T00:06:21.038Z,17.90
2019-05-28T00:07:21.038Z,17.80
2019-05-28T00:08:21.032Z,17.80
2019-05-28T00:09:21.023Z,18.30
2019-05-28T00:10:21.041Z,18.40
2019-05-28T00:11:20.977Z,18.60
2019-05-28T00:12:20.965Z,17.30
2019-05-28T00:13:20.966Z,18.00
2019-05-28T00:14:20.967Z,17.90
2019-05-28T00:15:20.940Z,18.40
2019-05-28T00:16:20.929Z,17.80
2019-05-28T00:17:20.925Z,19.20
2019-05-28T00:18:20.910Z,19.10
2019-05-28T00:19:20.885Z,18.70
2019-05-28T00:20:20.873Z,18.50
2019-05-28T00:21:20.876Z,18.70
2019-05-28T00:22:20.880Z,20.30
2019-05-28T00:23:20.869Z,20.60
2019-05-28T00:24:20.832Z,18.80
2019-05-28T00:25:24.542Z,18.50
2019-05-28T00:26:20.816Z,19.00
2019-05-28T00:27:20.797Z,19.00
2019-05-28T00:28:20.798Z,19.30
2019-05-28T00:29:20.771Z,19.20
2019-05-28T00:30:21.186Z,19.30
2019-05-28T00:31:20.759Z,19.50
2019-05-28T00:32:20.749Z,19.90
2019-05-28T00:33:20.748Z,19.90
2019-05-28T00:34:20.740Z,20.40
2019-05-28T00:35:20.711Z,19.70
2019-05-28T00:36:20.711Z,19.40
2019-05-28T00:37:20.697Z,20.40
2019-05-28T00:38:20.704Z,20.10
2019-05-28T00:39:20.656Z,21.50
2019-05-28T00:40:20.670Z,21.30
2019-05-28T00:41:20.642Z,21.30
2019-05-28T00:42:20.630Z,21.80
2019-05-28T00:43:20.631Z,22.10
2019-05-28T00:44:20.622Z,22.00
2019-05-28T00:45:20.591Z,22.60
2019-05-28T00:46:20.605Z,21.20
2019-05-28T00:47:20.567Z,21.30
2019-05-28T00:48:20.560Z,22.30
2019-05-28T00:49:20.564Z,22.90
2019-05-28T00:50:20.550Z,21.60
2019-05-28T00:51:20.529Z,22.70
2019-05-28T00:52:20.510Z,23.30
2019-05-28T00:53:20.507Z,23.00
2019-05-28T00:54:20.516Z,22.60
2019-05-28T00:55:20.476Z,22.30
2019-05-28T00:56:20.466Z,23.00
2019-05-28T00:57:20.467Z,23.10
2019-05-28T00:58:20.443Z,23.50
2019-05-28T00:59:20.447Z,23.20
2019-05-28T01:00:36.143Z,21.70
2019-05-28T01:01:21.408Z,22.00
2019-05-28T01:02:20.404Z,21.50
2019-05-28T01:03:20.389Z,22.20
2019-05-28T01:04:20.415Z,21.60
2019-05-28T01:05:20.373Z,21.30
2019-05-28T01:06:20.358Z,22.40
2019-05-28T01:07:20.341Z,21.50
2019-05-28T01:08:20.339Z,21.00
2019-05-28T01:09:20.345Z,21.80
2019-05-28T01:10:20.312Z,21.60
2019-05-28T01:11:20.297Z,21.30
2019-05-28T01:12:20.302Z,19.90
2019-05-28T01:13:20.279Z,19.80
2019-05-28T01:14:20.308Z,20.70
2019-05-28T01:15:20.262Z,20.30
2019-05-28T01:16:20.253Z,20.10
2019-05-28T01:17:20.231Z,20.90
2019-05-28T01:18:20.219Z,21.10
2019-05-28T01:19:20.214Z,20.90
2019-05-28T01:20:20.220Z,21.80
2019-05-28T01:21:20.191Z,21.90
2019-05-28T01:22:20.178Z,22.60
2019-05-28T01:23:20.169Z,22.10
2019-05-28T01:24:20.152Z,21.00
2019-05-28T01:25:20.164Z,21.50
2019-05-28T01:26:20.130Z,21.70
2019-05-28T01:27:20.152Z,20.20
2019-05-28T01:28:20.116Z,19.90
2019-05-28T01:29:20.103Z,19.60
2019-05-28T01:30:20.114Z,19.30
2019-05-28T01:31:20.088Z,19.30
2019-05-28T01:32:20.063Z,19.10
2019-05-28T01:33:20.053Z,19.50
2019-05-28T01:34:20.040Z,18.30
2019-05-28T01:35:20.062Z,19.30
2019-05-28T01:36:20.020Z,18.50
2019-05-28T01:37:20.013Z,20.10
2019-05-28T01:38:20.006Z,19.10
2019-05-28T01:39:20.004Z,19.80
2019-05-28T01:40:23.012Z,20.10
2019-05-28T01:41:19.992Z,19.40
2019-05-28T01:42:19.955Z,19.20
2019-05-28T01:43:19.946Z,19.40
2019-05-28T01:44:19.936Z,19.50
2019-05-28T01:45:19.953Z,19.50
2019-05-28T01:46:19.911Z,18.50
2019-05-28T01:47:19.909Z,19.20
2019-05-28T01:48:19.884Z,17.80
2019-05-28T01:49:19.875Z,18.40
2019-05-28T01:50:19.868Z,18.50
2019-05-28T01:51:19.901Z,19.10
2019-05-28T01:52:19.856Z,19.10
2019-05-28T01:53:19.831Z,19.00
2019-05-28T01:54:19.821Z,18.60
2019-05-28T01:55:19.851Z,18.70
2019-05-28T01:56:19.818Z,18.70
2019-05-28T01:57:19.788Z,19.10
2019-05-28T01:58:19.776Z,18.80
2019-05-28T01:59:19.765Z,18.30
2019-05-28T02:00:19.767Z,17.60
2019-05-28T02:01:19.758Z,17.30
2019-05-28T02:02:19.749Z,18.20
2019-05-28T02:03:19.724Z,17.00
2019-05-28T02:04:19.728Z,17.60
2019-05-28T02:05:19.703Z,16.80
2019-05-28T02:06:19.702Z,16.40
2019-05-28T02:07:19.675Z,17.10
2019-05-28T02:08:19.703Z,17.30
2019-05-28T02:09:19.656Z,17.10
2019-05-28T02:10:19.644Z,17.50
2019-05-28T02:11:19.698Z,16.30
2019-05-28T02:12:19.634Z,17.20
2019-05-28T02:13:19.612Z,16.60
2019-05-28T02:14:19.601Z,17.40
2019-05-28T02:15:19.625Z,17.90
2019-05-28T02:16:19.593Z,18.70
2019-05-28T02:17:19.555Z,17.40
2019-05-28T02:18:19.569Z,17.80
2019-05-28T02:19:19.570Z,18.30
2019-05-28T02:20:19.530Z,17.90
2019-05-28T02:21:19.550Z,17.60
2019-05-28T02:22:19.571Z,17.30
2019-05-28T02:23:19.494Z,18.10
2019-05-28T02:24:19.495Z,17.50
2019-05-28T02:25:19.472Z,17.70
2019-05-28T02:26:19.478Z,18.10
2019-05-28T02:27:19.469Z,17.80
2019-05-28T02:28:19.482Z,17.70
2019-05-28T02:29:19.422Z,18.50
2019-05-28T02:30:19.419Z,18.10
2019-05-28T02:31:27.873Z,17.60
2019-05-28T02:32:20.402Z,17.10
2019-05-28T02:33:19.383Z,16.50
2019-05-28T02:34:19.407Z,16.70
2019-05-28T02:35:19.357Z,17.20
2019-05-28T02:36:19.356Z,17.30
2019-05-28T02:37:19.363Z,18.00
2019-05-28T02:38:19.323Z,19.00
2019-05-28T02:39:19.309Z,18.30
2019-05-28T02:40:19.298Z,17.90
2019-05-28T02:41:19.296Z,18.80
2019-05-28T02:42:19.321Z,18.70
2019-05-28T02:43:19.266Z,18.60
2019-05-28T02:44:19.265Z,18.80
2019-05-28T02:45:19.266Z,18.30
2019-05-28T02:46:19.228Z,19.10
2019-05-28T02:47:19.255Z,20.10
2019-05-28T02:48:19.230Z,19.30
2019-05-28T02:49:19.195Z,18.90
2019-05-28T02:50:19.190Z,19.00
2019-05-28T02:51:19.174Z,19.80
2019-05-28T02:52:19.160Z,18.50
2019-05-28T02:53:19.167Z,18.40
2019-05-28T02:54:19.155Z,19.70
2019-05-28T02:55:19.134Z,19.30
2019-05-28T02:56:19.143Z,19.20
2019-05-28T02:57:19.134Z,19.20
2019-05-28T02:58:19.112Z,19.50
2019-05-28T02:59:19.086Z,18.60
2019-05-28T03:00:19.079Z,19.40
2019-05-28T03:01:19.083Z,19.80
2019-05-28T03:02:19.051Z,19.70
2019-05-28T03:03:19.056Z,19.20
2019-05-28T03:04:19.029Z,19.90
2019-05-28T03:05:19.026Z,20.30
2019-05-28T03:06:19.006Z,20.20
2019-05-28T03:07:19.008Z,20.90
2019-05-28T03:08:19.010Z,20.90
2019-05-28T03:09:18.986Z,21.60
2019-05-28T03:10:18.960Z,21.60
2019-05-28T03:11:18.956Z,21.20
2019-05-28T03:12:18.940Z,21.10
2019-05-28T03:13:18.975Z,20.60
2019-05-28T03:14:18.918Z,20.70
2019-05-28T03:15:18.910Z,20.90
2019-05-28T03:16:18.952Z,20.90
2019-05-28T03:17:18.895Z,20.10
2019-05-28T03:18:18.901Z,20.30
2019-05-28T03:19:18.861Z,21.80
2019-05-28T03:20:18.846Z,20.80
2019-05-28T03:21:18.846Z,20.90
2019-05-28T03:22:18.836Z,21.00
2019-05-28T03:23:18.818Z,21.70
2019-05-28T03:24:18.822Z,22.00
2019-05-28T03:25:18.815Z,22.40
2019-05-28T03:26:18.778Z,22.30
2019-05-28T03:27:18.772Z,22.50
2019-05-28T03:28:18.786Z,22.00
2019-05-28T03:29:18.768Z,22.00
2019-05-28T03:30:18.734Z,23.50
2019-05-28T03:31:18.725Z,22.20
2019-05-28T03:32:18.714Z,22.60
2019-05-28T03:33:18.731Z,21.30
2019-05-28T03:34:18.703Z,21.60
2019-05-28T03:35:18.679Z,20.50
2019-05-28T03:36:18.679Z,20.50
2019-05-28T03:37:18.659Z,20.00
2019-05-28T03:38:18.646Z,20.20
2019-05-28T03:39:18.652Z,20.40
2019-05-28T03:40:18.627Z,20.90
2019-05-28T03:41:18.613Z,21.80
2019-05-28T03:42:18.607Z,22.30
2019-05-28T03:43:18.597Z,21.90
2019-05-28T03:44:18.605Z,20.60
2019-05-28T03:45:18.568Z,21.60
2019-05-28T03:46:18.560Z,22.00
2019-05-28T03:47:18.545Z,21.20
2019-05-28T03:48:18.535Z,21.50
2019-05-28T03:49:18.542Z,22.40
2019-05-28T03:50:18.510Z,22.70
2019-05-28T03:51:18.500Z,22.60
2019-05-28T03:52:18.505Z,22.10
2019-05-28T03:53:18.477Z,22.60
2019-05-28T03:54:18.497Z,23.20
2019-05-28T03:55:18.453Z,23.00
2019-05-28T03:56:18.447Z,21.20
2019-05-28T03:57:18.444Z,21.00
2019-05-28T03:58:18.441Z,20.30
2019-05-28T03:59:18.409Z,21.10
2019-05-28T04:00:18.412Z,21.00
2019-05-28T04:01:18.387Z,20.70
2019-05-28T04:02:23.483Z,20.30
2019-05-28T04:03:19.365Z,19.50
2019-05-28T04:04:18.356Z,19.40
2019-05-28T04:05:18.363Z,20.00
2019-05-28T04:06:18.329Z,19.80
2019-05-28T04:07:18.317Z,20.00
2019-05-28T04:08:18.312Z,20.10
2019-05-28T04:09:18.300Z,20.80
2019-05-28T04:10:18.320Z,21.30
2019-05-28T04:11:18.276Z,21.50
2019-05-28T04:12:18.277Z,22.30
2019-05-28T04:13:18.252Z,21.30
2019-05-28T04:14:18.250Z,21.50
2019-05-28T04:15:18.245Z,22.10
2019-05-28T04:16:18.235Z,21.40
2019-05-28T04:17:18.211Z,22.20
2019-05-28T04:18:18.193Z,20.80
2019-05-28T04:19:18.195Z,20.90
2019-05-28T04:20:18.206Z,20.80
2019-05-28T04:21:18.162Z,21.50
2019-05-28T04:22:18.154Z,21.10
2019-05-28T04:23:18.143Z,21.70
2019-05-28T04:24:18.193Z,21.60
2019-05-28T04:25:18.139Z,21.40
2019-05-28T04:26:18.108Z,21.50
2019-05-28T04:27:18.097Z,20.60
2019-05-28T04:28:18.111Z,20.30
2019-05-28T04:29:18.068Z,20.40
2019-05-28T04:30:18.091Z,21.00
2019-05-28T04:31:18.052Z,20.20
2019-05-28T04:32:18.042Z,20.80
2019-05-28T04:33:18.031Z,21.70
2019-05-28T04:34:18.026Z,20.90
2019-05-28T04:35:18.017Z,20.40
2019-05-28T04:36:17.997Z,19.50
2019-05-28T04:37:17.984Z,19.70
2019-05-28T04:38:17.985Z,19.50
2019-05-28T04:39:18.057Z,19.80
2019-05-28T04:40:17.988Z,20.50
2019-05-28T04:41:17.944Z,20.20
2019-05-28T04:42:17.930Z,20.00
2019-05-28T04:43:17.914Z,20.90
2019-05-28T04:44:17.903Z,21.60
2019-05-28T04:45:17.907Z,21.10
2019-05-28T04:46:17.884Z,22.80
2019-05-28T04:47:17.880Z,22.60
2019-05-28T04:48:17.881Z,21.60
2019-05-28T04:49:17.857Z,22.00
2019-05-28T04:50:17.868Z,20.40
2019-05-28T04:51:17.825Z,20.80
2019-05-28T04:52:17.818Z,20.60
2019-05-28T04:53:17.821Z,20.10
2019-05-28T04:54:17.791Z,19.40
2019-05-28T04:55:17.797Z,19.50
2019-05-28T04:56:17.806Z,18.80
2019-05-28T04:57:17.756Z,18.60
2019-05-28T04:58:17.749Z,18.10
2019-05-28T04:59:17.734Z,19.00
2019-05-28T05:00:17.721Z,18.80
2019-05-28T05:01:17.732Z,20.60
2019-05-28T05:02:17.715Z,20.50
2019-05-28T05:03:17.693Z,19.60
2019-05-28T05:04:17.684Z,19.40
2019-05-28T05:05:17.669Z,19.70
2019-05-28T05:06:17.691Z,20.10
2019-05-28T05:07:17.647Z,20.10
2019-05-28T05:08:17.638Z,19.70
2019-05-28T05:09:17.628Z,20.00
2019-05-28T05:10:19.182Z,20.60
2019-05-28T05:11:17.605Z,20.60
2019-05-28T05:12:17.616Z,20.50
2019-05-28T05:13:17.585Z,21.60
2019-05-28T05:14:17.572Z,20.30
2019-05-28T05:15:17.576Z,20.60
2019-05-28T05:16:17.575Z,19.10
2019-05-28T05:17:17.564Z,21.00
2019-05-28T05:18:17.669Z,21.40
2019-05-28T05:19:17.523Z,22.90
2019-05-28T05:20:17.512Z,21.60
2019-05-28T05:21:17.524Z,22.20
2019-05-28T05:22:17.511Z,22.70
2019-05-28T05:23:17.473Z,22.10
2019-05-28T05:24:17.467Z,22.40
2019-05-28T05:25:17.649Z,23.50
2019-05-28T05:26:17.441Z,24.10
2019-05-28T05:27:17.448Z,24.40
2019-05-28T05:28:17.419Z,23.20
2019-05-28T05:29:17.405Z,22.20
2019-05-28T05:30:17.393Z,23.60
2019-05-28T05:31:17.384Z,24.20
2019-05-28T05:32:17.403Z,24.70
2019-05-28T05:33:20.340Z,24.20
2019-05-28T05:34:17.346Z,24.70
2019-05-28T05:35:17.333Z,24.60
2019-05-28T05:36:17.330Z,25.30
2019-05-28T05:37:17.345Z,25.40
2019-05-28T05:38:17.311Z,24.70
2019-05-28T05:39:17.289Z,25.10
2019-05-28T05:40:17.280Z,25.50
2019-05-28T05:41:17.272Z,24.60
2019-05-28T05:42:17.260Z,24.60
2019-05-28T05:43:17.270Z,24.40
2019-05-28T05:44:17.278Z,25.60
2019-05-28T05:45:17.228Z,24.90
2019-05-28T05:46:17.217Z,23.40
2019-05-28T05:47:17.213Z,23.80
2019-05-28T05:48:17.205Z,24.40
2019-05-28T05:49:17.178Z,22.90
2019-05-28T05:50:17.165Z,24.60
2019-05-28T05:51:17.173Z,24.10
2019-05-28T05:52:17.164Z,25.50
2019-05-28T05:53:17.155Z,25.30
2019-05-28T05:54:17.134Z,24.20
2019-05-28T05:55:17.111Z,23.80
2019-05-28T05:56:17.101Z,22.70
2019-05-28T05:57:17.087Z,23.00
2019-05-28T05:58:17.106Z,22.30
2019-05-28T05:59:17.070Z,22.50
2019-05-28T06:00:17.068Z,23.30
2019-05-28T06:01:17.058Z,23.30
2019-05-28T06:02:17.032Z,21.60
2019-05-28T06:03:17.044Z,22.30
2019-05-28T06:04:17.011Z,22.30
2019-05-28T06:05:17.000Z,22.60
2019-05-28T06:06:16.990Z,22.00
2019-05-28T06:07:16.980Z,24.10
2019-05-28T06:08:16.997Z,22.90
2019-05-28T06:09:16.961Z,22.50
2019-05-28T06:10:16.952Z,22.90
2019-05-28T06:11:16.942Z,23.80
2019-05-28T06:12:16.923Z,24.40
2019-05-28T06:13:16.929Z,23.60
2019-05-28T06:14:16.907Z,23.30
2019-05-28T06:15:16.889Z,22.70
2019-05-28T06:16:16.907Z,22.70
2019-05-28T06:17:16.869Z,23.40
2019-05-28T06:18:16.878Z,22.70
2019-05-28T06:19:16.895Z,22.70
2019-05-28T06:20:16.854Z,23.60
2019-05-28T06:21:18.956Z,23.30
2019-05-28T06:22:16.823Z,22.40
2019-05-28T06:23:16.826Z,22.80
2019-05-28T06:24:16.804Z,23.10
2019-05-28T06:25:16.789Z,21.50
2019-05-28T06:26:16.821Z,21.40
2019-05-28T06:27:19.336Z,22.00
2019-05-28T06:28:16.790Z,21.20
2019-05-28T06:29:16.735Z,21.90
2019-05-28T06:30:16.733Z,23.00
2019-05-28T06:31:16.713Z,22.80
2019-05-28T06:32:16.724Z,22.20
2019-05-28T06:33:16.711Z,21.50
2019-05-28T06:34:16.679Z,21.90
2019-05-28T06:35:16.675Z,22.30
2019-05-28T06:36:16.665Z,22.50
2019-05-28T06:37:16.647Z,21.80
2019-05-28T06:38:16.640Z,22.30
2019-05-28T06:39:16.644Z,21.80
2019-05-28T06:40:16.611Z,22.10
2019-05-28T06:41:16.599Z,21.40
2019-05-28T06:42:16.588Z,21.10
2019-05-28T06:43:16.577Z,23.30
2019-05-28T06:44:16.597Z,21.20
2019-05-28T06:45:16.558Z,20.90
2019-05-28T06:46:16.575Z,20.10
2019-05-28T06:47:16.533Z,19.90
2019-05-28T06:48:16.528Z,20.20
2019-05-28T06:49:16.534Z,20.60
2019-05-28T06:50:16.507Z,20.60
2019-05-28T06:51:16.490Z,20.40
2019-05-28T06:52:16.481Z,21.50
2019-05-28T06:53:16.479Z,21.70
2019-05-28T06:54:16.488Z,20.70
2019-05-28T06:55:16.452Z,21.00
2019-05-28T06:56:16.450Z,21.40
2019-05-28T06:57:22.663Z,21.00
2019-05-28T06:58:17.419Z,20.20
2019-05-28T06:59:16.436Z,20.10
2019-05-28T07:00:16.403Z,20.70
2019-05-28T07:01:16.387Z,21.00
2019-05-28T07:02:16.366Z,19.40
2019-05-28T07:03:16.372Z,21.90
2019-05-28T07:04:31.751Z,20.10
2019-05-28T07:05:17.336Z,20.70
2019-05-28T07:06:16.327Z,20.20
2019-05-28T07:07:16.337Z,21.50
2019-05-28T07:08:16.309Z,20.30
2019-05-28T07:09:16.318Z,19.70
2019-05-28T07:10:16.283Z,21.10
2019-05-28T07:11:16.268Z,19.00
2019-05-28T07:12:18.303Z,19.30
2019-05-28T07:13:16.260Z,20.60
2019-05-28T07:14:16.269Z,20.70
2019-05-28T07:15:16.262Z,21.00
2019-05-28T07:16:16.214Z,20.20
2019-05-28T07:17:16.208Z,20.70
2019-05-28T07:18:16.196Z,20.40
2019-05-28T07:19:24.618Z,21.60
2019-05-28T07:20:17.189Z,20.90
2019-05-28T07:21:16.182Z,21.40
2019-05-28T07:22:16.192Z,21.00
2019-05-28T07:23:16.147Z,21.10
2019-05-28T07:24:16.134Z,19.00
2019-05-28T07:25:16.143Z,18.40
2019-05-28T07:26:16.107Z,18.50
2019-05-28T07:27:16.091Z,19.30
2019-05-28T07:28:16.088Z,18.00
2019-05-28T07:29:16.074Z,17.90
2019-05-28T07:30:16.090Z,17.40
2019-05-28T07:31:16.085Z,17.10
2019-05-28T07:32:16.086Z,17.20
2019-05-28T07:33:16.036Z,18.30
2019-05-28T07:34:29.688Z,17.30
2019-05-28T07:35:17.035Z,17.50
2019-05-28T07:36:15.998Z,19.00
2019-05-28T07:37:15.996Z,19.50
2019-05-28T07:38:15.972Z,19.90
2019-05-28T07:39:15.961Z,20.20
2019-05-28T07:40:30.491Z,21.30
2019-05-28T07:41:16.942Z,20.40
2019-05-28T07:42:31.549Z,20.10
2019-05-28T07:43:16.916Z,21.00
2019-05-28T07:44:15.905Z,21.50
2019-05-28T07:45:15.934Z,21.20
2019-05-28T07:46:15.888Z,20.90
2019-05-28T07:47:15.901Z,21.30
2019-05-28T07:48:15.873Z,20.30
2019-05-28T07:49:15.873Z,22.40
2019-05-28T07:50:15.845Z,22.20
2019-05-28T07:51:15.846Z,21.60
2019-05-28T07:52:15.824Z,22.70
2019-05-28T07:53:15.811Z,22.00
2019-05-28T07:54:15.810Z,22.40
2019-05-28T07:55:15.788Z,21.90
2019-05-28T07:56:15.793Z,22.50
2019-05-28T07:57:15.770Z,22.70
2019-05-28T07:58:15.761Z,22.30
2019-05-28T07:59:15.744Z,22.20
2019-05-28T08:00:15.779Z,20.90
2019-05-28T08:01:15.745Z,20.70
2019-05-28T08:02:15.727Z,19.40
2019-05-28T08:03:15.701Z,19.90
2019-05-28T08:04:15.754Z,19.70
2019-05-28T08:05:17.267Z,21.30
2019-05-28T08:06:15.722Z,21.20
2019-05-28T08:07:16.287Z,20.80
2019-05-28T08:08:15.642Z,20.80
2019-05-28T08:09:15.644Z,20.60
2019-05-28T08:10:15.622Z,21.50
2019-05-28T08:11:15.624Z,22.30
2019-05-28T08:12:15.625Z,21.30
2019-05-28T08:13:15.586Z,21.70
2019-05-28T08:14:15.608Z,21.50
2019-05-28T08:15:15.566Z,20.80
2019-05-28T08:16:18.505Z,21.10
2019-05-28T08:17:15.570Z,20.30
2019-05-28T08:18:15.558Z,19.80
2019-05-28T08:19:15.521Z,21.00
2019-05-28T08:20:18.448Z,20.00
2019-05-28T08:21:15.524Z,19.90
2019-05-28T08:22:15.501Z,20.80
2019-05-28T08:23:15.484Z,21.00
2019-05-28T08:24:15.471Z,22.30
2019-05-28T08:25:33.417Z,21.30
2019-05-28T08:26:16.464Z,20.80
2019-05-28T08:27:15.437Z,21.80
2019-05-28T08:28:19.802Z,21.80
2019-05-28T08:29:16.417Z,21.40
2019-05-28T08:30:15.418Z,20.00
2019-05-28T08:31:20.723Z,17.20
2019-05-28T08:32:16.380Z,18.50
2019-05-28T08:33:15.404Z,16.40
2019-05-28T08:34:19.358Z,16.30
2019-05-28T08:35:15.347Z,17.80
2019-05-28T08:36:15.340Z,17.50
2019-05-28T08:37:15.359Z,17.10
2019-05-28T08:38:15.316Z,19.00
2019-05-28T08:39:15.303Z,18.00
2019-05-28T08:40:15.297Z,18.70
2019-05-28T08:41:15.297Z,18.60
2019-05-28T08:42:15.286Z,19.80
2019-05-28T08:43:15.269Z,20.40
2019-05-28T08:44:15.259Z,20.10
2019-05-28T08:45:15.254Z,19.90
2019-05-28T08:46:15.232Z,18.50
2019-05-28T08:47:15.235Z,18.60
2019-05-28T08:48:15.207Z,17.50
2019-05-28T08:49:15.198Z,16.70
2019-05-28T08:50:15.183Z,17.20
2019-05-28T08:51:15.184Z,17.70
2019-05-28T08:52:15.212Z,17.60
2019-05-28T08:53:15.154Z,18.30
2019-05-28T08:54:15.147Z,18.40
2019-05-28T08:55:15.136Z,17.50
2019-05-28T08:56:15.119Z,18.40
2019-05-28T08:57:15.125Z,18.60
2019-05-28T08:58:15.098Z,18.30
2019-05-28T08:59:15.096Z,19.80
2019-05-28T09:00:15.116Z,20.20
2019-05-28T09:01:15.061Z,19.50
2019-05-28T09:02:26.984Z,19.00
2019-05-28T09:03:16.054Z,19.30
2019-05-28T09:04:15.035Z,17.70
2019-05-28T09:05:25.918Z,19.50
2019-05-28T09:06:16.015Z,20.20
2019-05-28T09:07:15.012Z,19.30
2019-05-28T09:08:14.994Z,21.00
2019-05-28T09:09:15.004Z,18.60
2019-05-28T09:10:14.967Z,17.00
2019-05-28T09:11:15.011Z,16.30
2019-05-28T09:12:14.971Z,16.20
2019-05-28T09:13:14.959Z,16.50
2019-05-28T09:14:14.923Z,17.50
2019-05-28T09:15:14.910Z,14.90
2019-05-28T09:16:14.901Z,17.60
2019-05-28T09:17:14.893Z,16.30
2019-05-28T09:18:14.896Z,15.50
2019-05-28T09:19:14.866Z,15.00
2019-05-28T09:20:14.854Z,17.40
2019-05-28T09:21:14.847Z,15.80
2019-05-28T09:22:25.106Z,14.60
2019-05-28T09:23:15.845Z,15.20
2019-05-28T09:24:14.816Z,15.90
2019-05-28T09:25:14.797Z,16.50
2019-05-28T09:26:14.824Z,16.10
2019-05-28T09:27:14.779Z,15.90
2019-05-28T09:28:29.433Z,16.00
2019-05-28T09:29:15.750Z,15.70
2019-05-28T09:30:14.746Z,16.00
2019-05-28T09:31:14.744Z,15.70
2019-05-28T09:32:14.737Z,15.60
2019-05-28T09:33:14.769Z,15.90
2019-05-28T09:34:14.709Z,17.00
2019-05-28T09:35:14.701Z,18.60
2019-05-28T09:36:14.683Z,20.50
2019-05-28T09:37:14.668Z,19.20
2019-05-28T09:38:14.687Z,20.30
2019-05-28T09:39:14.673Z,22.60
2019-05-28T09:40:14.635Z,23.50
2019-05-28T09:41:14.646Z,21.20
2019-05-28T09:42:14.617Z,21.10
2019-05-28T09:43:14.604Z,21.00
2019-05-28T09:44:14.624Z,20.50
2019-05-28T09:45:22.677Z,21.40
2019-05-28T09:46:15.568Z,19.70
2019-05-28T09:47:14.580Z,19.90
2019-05-28T09:48:14.551Z,21.50
2019-05-28T09:49:14.550Z,19.30
2019-05-28T09:50:29.997Z,20.10
2019-05-28T09:51:15.514Z,16.80
2019-05-28T09:52:14.551Z,17.00
2019-05-28T09:53:14.491Z,17.20
2019-05-28T09:54:14.507Z,17.50
2019-05-28T09:55:14.569Z,17.00
2019-05-28T09:56:14.487Z,16.50
2019-05-28T09:57:14.469Z,17.40
2019-05-28T09:58:14.442Z,16.60
2019-05-28T09:59:14.448Z,16.80
2019-05-28T10:00:15.289Z,17.50
2019-05-28T10:01:14.411Z,16.20
2019-05-28T10:02:14.393Z,16.50
2019-05-28T10:03:14.391Z,16.20
2019-05-28T10:04:14.442Z,16.10
2019-05-28T10:05:14.358Z,15.60
2019-05-28T10:06:17.593Z,16.20
2019-05-28T10:07:14.447Z,16.70
2019-05-28T10:08:14.345Z,14.60
2019-05-28T10:09:14.317Z,15.90
2019-05-28T10:10:14.317Z,15.80
2019-05-28T10:11:14.295Z,16.70
2019-05-28T10:12:14.288Z,17.70
2019-05-28T10:13:14.312Z,17.50
2019-05-28T10:14:14.278Z,18.30
2019-05-28T10:15:14.313Z,17.80
2019-05-28T10:16:14.249Z,18.80
2019-05-28T10:17:14.228Z,17.70
2019-05-28T10:18:14.232Z,17.10
2019-05-28T10:19:14.207Z,15.30
2019-05-28T10:20:14.213Z,15.00
2019-05-28T10:21:18.777Z,14.30
2019-05-28T10:22:15.178Z,14.40
2019-05-28T10:23:14.161Z,14.60
2019-05-28T10:24:14.172Z,14.90
2019-05-28T10:25:14.267Z,14.50
2019-05-28T10:26:14.180Z,14.10
2019-05-28T10:27:14.222Z,14.00
2019-05-28T10:28:14.142Z,13.50
2019-05-28T10:29:14.239Z,13.10
2019-05-28T10:30:14.181Z,15.30
2019-05-28T10:31:14.072Z,13.40
2019-05-28T10:32:14.084Z,11.30
2019-05-28T10:33:14.074Z,10.80
2019-05-28T10:34:14.050Z,9.80
2019-05-28T10:35:14.064Z,7.80
2019-05-28T10:36:14.107Z,10.20
2019-05-28T10:37:14.022Z,8.40
2019-05-28T10:38:16.661Z,8.30
2019-05-28T10:39:13.991Z,8.90
2019-05-28T10:40:13.988Z,8.20
2019-05-28T10:41:13.996Z,8.60
2019-05-28T10:42:13.985Z,6.30
2019-05-28T10:43:13.938Z,6.10
2019-05-28T10:44:13.957Z,5.00
2019-05-28T10:45:13.956Z,4.80
2019-05-28T10:46:14.205Z,5.10
2019-05-28T10:47:13.898Z,5.20
2019-05-28T10:48:13.894Z,5.80
2019-05-28T10:49:13.896Z,5.80
2019-05-28T10:50:13.869Z,5.80
2019-05-28T10:51:13.883Z,6.10
2019-05-28T10:52:13.846Z,7.20
2019-05-28T10:53:13.983Z,7.10
2019-05-28T10:54:13.839Z,6.70
2019-05-28T10:55:16.027Z,5.90
2019-05-28T10:56:13.820Z,6.60
2019-05-28T10:57:13.795Z,6.20
2019-05-28T10:58:13.773Z,6.70
2019-05-28T10:59:13.776Z,5.80
2019-05-28T11:00:13.757Z,6.60
2019-05-28T11:01:13.799Z,6.60
2019-05-28T11:02:13.737Z,6.20
2019-05-28T11:03:13.734Z,6.10
2019-05-28T11:04:13.707Z,6.60
2019-05-28T11:05:13.707Z,6.70
2019-05-28T11:06:13.706Z,7.10
2019-05-28T11:07:13.703Z,7.50
2019-05-28T11:08:13.660Z,7.20
2019-05-28T11:09:13.671Z,7.10
2019-05-28T11:10:23.800Z,7.20
2019-05-28T11:11:14.678Z,7.70
2019-05-28T11:12:13.623Z,8.40
2019-05-28T11:13:13.608Z,8.70
2019-05-28T11:14:13.597Z,8.10
2019-05-28T11:15:13.588Z,7.20
2019-05-28T11:16:13.599Z,7.50
2019-05-28T11:17:13.585Z,7.70
2019-05-28T11:18:13.565Z,7.70
2019-05-28T11:19:13.586Z,7.00
2019-05-28T11:20:13.527Z,6.60
2019-05-28T11:21:13.515Z,7.10
2019-05-28T11:22:13.526Z,6.80
2019-05-28T11:23:13.498Z,6.80
2019-05-28T11:24:13.484Z,7.50
2019-05-28T11:25:13.486Z,7.70
2019-05-28T11:26:13.466Z,7.50
2019-05-28T11:27:13.482Z,6.80
2019-05-28T11:28:13.446Z,7.40
2019-05-28T11:29:13.460Z,7.50
2019-05-28T11:30:13.423Z,7.50
2019-05-28T11:31:13.407Z,7.10
2019-05-28T11:32:13.429Z,7.50
2019-05-28T11:33:17.222Z,8.20
2019-05-28T11:34:13.376Z,8.10
2019-05-28T11:35:13.371Z,8.60
2019-05-28T11:36:13.357Z,8.60
2019-05-28T11:37:13.360Z,7.50
2019-05-28T11:38:13.328Z,7.80
2019-05-28T11:39:13.324Z,8.10
2019-05-28T11:40:13.374Z,7.80
2019-05-28T11:41:13.309Z,8.20
2019-05-28T11:42:13.309Z,7.20
2019-05-28T11:43:13.290Z,7.50
2019-05-28T11:44:13.293Z,8.30
2019-05-28T11:45:14.987Z,8.00
2019-05-28T11:46:13.242Z,7.50
2019-05-28T11:47:13.233Z,8.20
2019-05-28T11:48:13.251Z,7.60
2019-05-28T11:49:13.217Z,7.50
2019-05-28T11:50:13.200Z,7.00
2019-05-28T11:51:13.218Z,7.20
2019-05-28T11:52:13.191Z,6.20
2019-05-28T11:53:13.185Z,6.40
2019-05-28T11:54:13.162Z,6.40
2019-05-28T11:55:13.142Z,6.60
2019-05-28T11:56:13.141Z,5.50
2019-05-28T11:57:13.125Z,5.60
2019-05-28T11:58:13.134Z,5.60
2019-05-28T11:59:13.097Z,4.20
2019-05-28T12:00:13.102Z,5.00
2019-05-28T12:01:13.076Z,4.60
2019-05-28T12:02:13.070Z,5.10
2019-05-28T12:03:13.069Z,5.40
2019-05-28T12:04:13.060Z,4.90
2019-05-28T12:05:13.043Z,5.40
2019-05-28T12:06:13.032Z,5.10
2019-05-28T12:07:25.729Z,5.30
2019-05-28T12:08:14.014Z,5.40
2019-05-28T12:09:12.998Z,4.30
2019-05-28T12:10:12.987Z,4.20
2019-05-28T12:11:12.981Z,4.60
2019-05-28T12:12:12.957Z,3.90
2019-05-28T12:13:12.969Z,3.90
2019-05-28T12:14:12.941Z,4.00
2019-05-28T12:15:12.920Z,4.10
2019-05-28T12:16:12.912Z,3.60
2019-05-28T12:17:12.926Z,4.20
2019-05-28T12:18:12.892Z,3.40
2019-05-28T12:19:12.908Z,8.30
2019-05-28T12:20:13.404Z,3.80
2019-05-28T12:21:12.900Z,3.50
2019-05-28T12:22:12.855Z,3.40
2019-05-28T12:23:12.847Z,4.00
2019-05-28T12:24:12.849Z,4.00
2019-05-28T12:25:12.819Z,3.60
2019-05-28T12:26:12.827Z,4.00
2019-05-28T12:27:12.809Z,4.10
2019-05-28T12:28:12.791Z,3.90
2019-05-28T12:29:12.814Z,4.00
2019-05-28T12:30:12.770Z,3.60
2019-05-28T12:31:12.754Z,3.90
2019-05-28T12:32:12.865Z,4.00
2019-05-28T12:33:12.774Z,4.00
2019-05-28T12:34:12.744Z,4.00
2019-05-28T12:35:27.178Z,4.30
2019-05-28T12:36:13.709Z,4.30
2019-05-28T12:37:12.685Z,4.20
2019-05-28T12:38:12.685Z,4.10
2019-05-28T12:39:12.679Z,4.70
2019-05-28T12:40:12.681Z,4.90
2019-05-28T12:41:12.720Z,5.00
2019-05-28T12:42:12.639Z,4.30
2019-05-28T12:43:12.927Z,4.10
2019-05-28T12:44:12.641Z,3.70
2019-05-28T12:45:12.739Z,3.50
2019-05-28T12:46:12.586Z,3.40
2019-05-28T12:47:14.883Z,3.70
2019-05-28T12:48:13.438Z,3.40
2019-05-28T12:49:12.618Z,3.60
2019-05-28T12:50:19.718Z,3.20
2019-05-28T12:51:13.542Z,3.60
2019-05-28T12:52:12.533Z,3.50
2019-05-28T12:53:12.529Z,2.90
2019-05-28T12:54:12.516Z,3.00
2019-05-28T12:55:12.518Z,3.40
2019-05-28T12:56:12.482Z,3.10
2019-05-28T12:57:12.478Z,2.80